sensor_id;sensor_type;location;lat;lon;timestamp;temperature;humidity
23116;DHT22;11727;52.134;5.052;2023-01-04T00:01:03;8.70;99.90
23116;DHT22;11727;52.134;5.052;2023-01-04T00:03:29;8.70;99.90
23116;DHT22;11727;52.134;5.052;2023-01-04T00:06:01;8.70;99.90
23116;DHT22;11727;52.134;5.052;2023-01-04T00:08:28;8.70;99.90
23116;DHT22;11727;52.134;5.052;2023-01-04T00:11:03;8.70;99.90
23116;DHT22;11727;52.134;5.052;2023-01-04T00:13:30;8.70;99.90
23116;DHT22;11727;52.134;5.052;2023-01-04T00:15:56;8.70;99.90
23116;DHT22;11727;52.134;5.052;2023-01-04T00:18:22;8.70;99.90
23116;DHT22;11727;52.134;5.052;2023-01-04T00:20:47;8.70;99.90
23116;DHT22;11727;52.134;5.052;2023-01-04T00:23:13;8.70;99.90
23116;DHT22;11727;52.134;5.052;2023-01-04T00:25:39;8.70;99.90
23116;DHT22;11727;52.134;5.052;2023-01-04T00:28:08;8.70;99.90
23116;DHT22;11727;52.134;5.052;2023-01-04T00:30:33;8.70;99.90
23116;DHT22;11727;52.134;5.052;2023-01-04T00:32:59;8.70;99.90
23116;DHT22;11727;52.134;5.052;2023-01-04T00:35:25;8.70;99.90
23116;DHT22;11727;52.134;5.052;2023-01-04T00:37:50;8.70;99.90
23116;DHT22;11727;52.134;5.052;2023-01-04T00:40:16;8.70;99.90
23116;DHT22;11727;52.134;5.052;2023-01-04T00:42:42;8.70;99.90
23116;DHT22;11727;52.134;5.052;2023-01-04T00:45:07;8.70;99.90
23116;DHT22;11727;52.134;5.052;2023-01-04T00:47:33;8.80;99.90
23116;DHT22;11727;52.134;5.052;2023-01-04T00:49:59;8.80;99.90
23116;DHT22;11727;52.134;5.052;2023-01-04T00:52:24;8.80;99.90
23116;DHT22;11727;52.134;5.052;2023-01-04T00:54:50;8.80;99.90
23116;DHT22;11727;52.134;5.052;2023-01-04T00:57:15;8.80;99.90
23116;DHT22;11727;52.134;5.052;2023-01-04T00:59:41;8.80;99.90
23116;DHT22;11727;52.134;5.052;2023-01-04T01:02:07;8.80;99.90
23116;DHT22;11727;52.134;5.052;2023-01-04T01:04:32;8.90;99.90
23116;DHT22;11727;52.134;5.052;2023-01-04T01:06:58;8.90;99.90
23116;DHT22;11727;52.134;5.052;2023-01-04T01:09:23;8.90;99.90
23116;DHT22;11727;52.134;5.052;2023-01-04T01:11:50;8.90;99.90
23116;DHT22;11727;52.134;5.052;2023-01-04T01:14:19;8.90;99.90
23116;DHT22;11727;52.134;5.052;2023-01-04T01:16:45;8.90;99.90
23116;DHT22;11727;52.134;5.052;2023-01-04T01:19:11;9.00;99.90
23116;DHT22;11727;52.134;5.052;2023-01-04T01:21:37;9.00;99.90
23116;DHT22;11727;52.134;5.052;2023-01-04T01:24:03;9.00;99.90
23116;DHT22;11727;52.134;5.052;2023-01-04T01:26:29;9.00;99.90
23116;DHT22;11727;52.134;5.052;2023-01-04T01:28:54;9.10;99.90
23116;DHT22;11727;52.134;5.052;2023-01-04T01:31:22;9.10;99.90
23116;DHT22;11727;52.134;5.052;2023-01-04T01:33:50;9.10;99.90
23116;DHT22;11727;52.134;5.052;2023-01-04T01:36:17;9.20;99.90
23116;DHT22;11727;52.134;5.052;2023-01-04T01:38:44;9.20;99.90
23116;DHT22;11727;52.134;5.052;2023-01-04T01:41:22;9.20;99.90
23116;DHT22;11727;52.134;5.052;2023-01-04T01:44:00;9.20;99.90
23116;DHT22;11727;52.134;5.052;2023-01-04T01:46:37;9.30;99.90
23116;DHT22;11727;52.134;5.052;2023-01-04T01:49:26;9.30;99.90
23116;DHT22;11727;52.134;5.052;2023-01-04T01:51:55;9.30;99.90
23116;DHT22;11727;52.134;5.052;2023-01-04T01:54:51;9.40;99.90
23116;DHT22;11727;52.134;5.052;2023-01-04T01:57:22;9.40;99.90
23116;DHT22;11727;52.134;5.052;2023-01-04T01:59:50;9.40;99.90
23116;DHT22;11727;52.134;5.052;2023-01-04T02:02:17;9.50;99.90
23116;DHT22;11727;52.134;5.052;2023-01-04T02:04:46;9.50;99.90
23116;DHT22;11727;52.134;5.052;2023-01-04T02:07:15;9.50;99.90
23116;DHT22;11727;52.134;5.052;2023-01-04T02:09:41;9.60;99.90
23116;DHT22;11727;52.134;5.052;2023-01-04T02:12:12;9.60;99.90
23116;DHT22;11727;52.134;5.052;2023-01-04T02:14:40;9.70;99.90
23116;DHT22;11727;52.134;5.052;2023-01-04T02:36:39;10.10;99.90
23116;DHT22;11727;52.134;5.052;2023-01-04T02:44:58;10.20;99.90
23116;DHT22;11727;52.134;5.052;2023-01-04T02:47:36;10.20;99.90
23116;DHT22;11727;52.134;5.052;2023-01-04T02:50:32;10.30;99.90
23116;DHT22;11727;52.134;5.052;2023-01-04T02:53:10;10.20;99.90
23116;DHT22;11727;52.134;5.052;2023-01-04T02:59:22;10.30;99.90
23116;DHT22;11727;52.134;5.052;2023-01-04T03:02:08;10.30;99.90
23116;DHT22;11727;52.134;5.052;2023-01-04T03:05:13;10.30;99.90
23116;DHT22;11727;52.134;5.052;2023-01-04T03:08:16;10.30;99.90
23116;DHT22;11727;52.134;5.052;2023-01-04T03:10:55;10.40;99.90
23116;DHT22;11727;52.134;5.052;2023-01-04T03:13:27;10.40;99.90
23116;DHT22;11727;52.134;5.052;2023-01-04T03:15:58;10.40;99.90
23116;DHT22;11727;52.134;5.052;2023-01-04T03:18:32;10.40;99.90
23116;DHT22;11727;52.134;5.052;2023-01-04T03:21:00;10.40;99.90
23116;DHT22;11727;52.134;5.052;2023-01-04T03:23:31;10.40;99.90
23116;DHT22;11727;52.134;5.052;2023-01-04T03:26:20;10.50;99.90
23116;DHT22;11727;52.134;5.052;2023-01-04T03:29:16;10.50;99.90
23116;DHT22;11727;52.134;5.052;2023-01-04T03:32:06;10.50;99.90
23116;DHT22;11727;52.134;5.052;2023-01-04T03:34:54;10.50;99.90
23116;DHT22;11727;52.134;5.052;2023-01-04T03:37:51;10.50;99.90
23116;DHT22;11727;52.134;5.052;2023-01-04T03:40:40;10.50;99.90
23116;DHT22;11727;52.134;5.052;2023-01-04T03:43:40;10.50;99.90
23116;DHT22;11727;52.134;5.052;2023-01-04T03:46:35;10.60;99.90
23116;DHT22;11727;52.134;5.052;2023-01-04T03:49:51;10.60;99.90
23116;DHT22;11727;52.134;5.052;2023-01-04T03:52:25;10.60;99.90
23116;DHT22;11727;52.134;5.052;2023-01-04T03:54:53;10.70;99.90
23116;DHT22;11727;52.134;5.052;2023-01-04T03:57:21;10.70;99.90
23116;DHT22;11727;52.134;5.052;2023-01-04T03:59:51;10.70;99.90
23116;DHT22;11727;52.134;5.052;2023-01-04T04:02:23;10.70;99.90
23116;DHT22;11727;52.134;5.052;2023-01-04T04:04:49;10.70;99.90
23116;DHT22;11727;52.134;5.052;2023-01-04T04:07:33;10.80;99.90
23116;DHT22;11727;52.134;5.052;2023-01-04T04:10:17;10.80;99.90
23116;DHT22;11727;52.134;5.052;2023-01-04T04:12:43;10.80;99.90
23116;DHT22;11727;52.134;5.052;2023-01-04T04:15:08;10.80;99.90
23116;DHT22;11727;52.134;5.052;2023-01-04T04:17:34;10.80;99.90
23116;DHT22;11727;52.134;5.052;2023-01-04T04:20:00;10.90;99.90
23116;DHT22;11727;52.134;5.052;2023-01-04T04:22:25;10.90;99.90
23116;DHT22;11727;52.134;5.052;2023-01-04T04:24:51;10.90;99.90
23116;DHT22;11727;52.134;5.052;2023-01-04T04:27:16;10.90;99.90
23116;DHT22;11727;52.134;5.052;2023-01-04T04:29:42;10.90;99.90
23116;DHT22;11727;52.134;5.052;2023-01-04T04:32:08;11.00;99.90
23116;DHT22;11727;52.134;5.052;2023-01-04T04:34:33;11.00;99.90
23116;DHT22;11727;52.134;5.052;2023-01-04T04:36:59;11.00;99.90
23116;DHT22;11727;52.134;5.052;2023-01-04T04:39:24;11.10;99.90
23116;DHT22;11727;52.134;5.052;2023-01-04T04:41:50;11.10;99.90
23116;DHT22;11727;52.134;5.052;2023-01-04T04:44:17;11.10;99.90
23116;DHT22;11727;52.134;5.052;2023-01-04T04:46:43;11.10;99.90
23116;DHT22;11727;52.134;5.052;2023-01-04T04:49:10;11.10;99.90
23116;DHT22;11727;52.134;5.052;2023-01-04T04:51:36;11.10;99.90
23116;DHT22;11727;52.134;5.052;2023-01-04T04:54:03;11.10;99.90
23116;DHT22;11727;52.134;5.052;2023-01-04T04:56:28;11.00;99.90
23116;DHT22;11727;52.134;5.052;2023-01-04T04:58:54;11.00;99.90
23116;DHT22;11727;52.134;5.052;2023-01-04T05:01:20;11.00;99.90
23116;DHT22;11727;52.134;5.052;2023-01-04T05:03:46;11.00;99.90
23116;DHT22;11727;52.134;5.052;2023-01-04T05:06:11;11.00;99.90
23116;DHT22;11727;52.134;5.052;2023-01-04T05:08:37;11.00;99.90
23116;DHT22;11727;52.134;5.052;2023-01-04T05:11:08;10.90;99.90
23116;DHT22;11727;52.134;5.052;2023-01-04T05:13:35;10.90;99.90
23116;DHT22;11727;52.134;5.052;2023-01-04T05:16:01;10.90;99.90
23116;DHT22;11727;52.134;5.052;2023-01-04T05:18:27;10.90;99.90
23116;DHT22;11727;52.134;5.052;2023-01-04T05:20:53;10.90;99.90
23116;DHT22;11727;52.134;5.052;2023-01-04T05:23:20;10.90;99.90
23116;DHT22;11727;52.134;5.052;2023-01-04T05:25:54;10.80;99.90
23116;DHT22;11727;52.134;5.052;2023-01-04T05:28:20;10.90;99.90
23116;DHT22;11727;52.134;5.052;2023-01-04T05:30:48;10.80;99.90
23116;DHT22;11727;52.134;5.052;2023-01-04T05:33:24;10.80;99.90
23116;DHT22;11727;52.134;5.052;2023-01-04T05:35:51;10.80;99.90
23116;DHT22;11727;52.134;5.052;2023-01-04T05:38:17;10.80;99.90
23116;DHT22;11727;52.134;5.052;2023-01-04T05:40:43;10.90;99.90
23116;DHT22;11727;52.134;5.052;2023-01-04T05:43:09;10.90;99.90
23116;DHT22;11727;52.134;5.052;2023-01-04T05:45:35;10.80;99.90
23116;DHT22;11727;52.134;5.052;2023-01-04T05:48:01;10.90;99.90
23116;DHT22;11727;52.134;5.052;2023-01-04T05:50:27;10.90;99.90
23116;DHT22;11727;52.134;5.052;2023-01-04T05:52:52;10.90;99.90
23116;DHT22;11727;52.134;5.052;2023-01-04T05:55:18;11.00;99.90
23116;DHT22;11727;52.134;5.052;2023-01-04T05:57:43;10.90;99.90
23116;DHT22;11727;52.134;5.052;2023-01-04T06:00:10;11.00;99.90
23116;DHT22;11727;52.134;5.052;2023-01-04T06:02:36;11.00;99.90
23116;DHT22;11727;52.134;5.052;2023-01-04T06:05:02;11.00;99.90
23116;DHT22;11727;52.134;5.052;2023-01-04T06:07:28;11.00;99.90
23116;DHT22;11727;52.134;5.052;2023-01-04T06:09:54;11.00;99.90
23116;DHT22;11727;52.134;5.052;2023-01-04T06:12:20;11.00;99.90
23116;DHT22;11727;52.134;5.052;2023-01-04T06:14:45;11.00;99.90
23116;DHT22;11727;52.134;5.052;2023-01-04T06:17:11;11.00;99.90
23116;DHT22;11727;52.134;5.052;2023-01-04T06:19:37;11.00;99.90
23116;DHT22;11727;52.134;5.052;2023-01-04T06:22:03;11.10;99.90
23116;DHT22;11727;52.134;5.052;2023-01-04T06:24:28;11.10;99.90
23116;DHT22;11727;52.134;5.052;2023-01-04T06:26:54;11.10;99.90
23116;DHT22;11727;52.134;5.052;2023-01-04T06:29:20;11.10;99.90
23116;DHT22;11727;52.134;5.052;2023-01-04T06:31:46;11.20;99.90
23116;DHT22;11727;52.134;5.052;2023-01-04T06:34:12;11.10;99.90
23116;DHT22;11727;52.134;5.052;2023-01-04T06:36:38;11.20;99.90
23116;DHT22;11727;52.134;5.052;2023-01-04T06:39:05;11.20;99.90
23116;DHT22;11727;52.134;5.052;2023-01-04T06:41:31;11.20;99.90
23116;DHT22;11727;52.134;5.052;2023-01-04T06:43:57;11.30;99.90
23116;DHT22;11727;52.134;5.052;2023-01-04T06:46:22;11.30;99.90
23116;DHT22;11727;52.134;5.052;2023-01-04T06:48:48;11.30;99.90
23116;DHT22;11727;52.134;5.052;2023-01-04T06:51:14;11.20;99.90
23116;DHT22;11727;52.134;5.052;2023-01-04T06:53:39;11.20;99.90
23116;DHT22;11727;52.134;5.052;2023-01-04T06:56:08;11.20;99.90
23116;DHT22;11727;52.134;5.052;2023-01-04T06:58:35;11.20;99.90
23116;DHT22;11727;52.134;5.052;2023-01-04T07:01:00;11.20;99.90
23116;DHT22;11727;52.134;5.052;2023-01-04T07:03:28;11.20;99.90
23116;DHT22;11727;52.134;5.052;2023-01-04T07:05:54;11.20;99.90
23116;DHT22;11727;52.134;5.052;2023-01-04T07:08:20;11.20;99.90
23116;DHT22;11727;52.134;5.052;2023-01-04T07:10:45;11.20;99.90
23116;DHT22;11727;52.134;5.052;2023-01-04T07:13:11;11.20;99.90
23116;DHT22;11727;52.134;5.052;2023-01-04T07:15:37;11.20;99.90
23116;DHT22;11727;52.134;5.052;2023-01-04T07:18:03;11.20;99.90
23116;DHT22;11727;52.134;5.052;2023-01-04T07:20:28;11.20;99.90
23116;DHT22;11727;52.134;5.052;2023-01-04T07:22:57;11.20;99.90
23116;DHT22;11727;52.134;5.052;2023-01-04T07:25:22;11.30;99.90
23116;DHT22;11727;52.134;5.052;2023-01-04T07:27:52;11.20;99.90
23116;DHT22;11727;52.134;5.052;2023-01-04T07:30:19;11.20;99.90
23116;DHT22;11727;52.134;5.052;2023-01-04T07:32:45;11.20;99.90
23116;DHT22;11727;52.134;5.052;2023-01-04T07:35:11;11.20;99.90
23116;DHT22;11727;52.134;5.052;2023-01-04T07:37:36;11.20;99.90
23116;DHT22;11727;52.134;5.052;2023-01-04T07:40:02;11.20;99.90
23116;DHT22;11727;52.134;5.052;2023-01-04T07:42:28;11.20;99.90
23116;DHT22;11727;52.134;5.052;2023-01-04T07:44:54;11.20;99.90
23116;DHT22;11727;52.134;5.052;2023-01-04T07:47:19;11.20;99.90
23116;DHT22;11727;52.134;5.052;2023-01-04T07:49:45;11.20;99.90
23116;DHT22;11727;52.134;5.052;2023-01-04T07:52:13;11.20;99.90
23116;DHT22;11727;52.134;5.052;2023-01-04T07:54:38;11.20;99.90
23116;DHT22;11727;52.134;5.052;2023-01-04T07:57:04;11.20;99.90
23116;DHT22;11727;52.134;5.052;2023-01-04T07:59:30;11.20;99.90
23116;DHT22;11727;52.134;5.052;2023-01-04T08:01:55;11.20;99.90
23116;DHT22;11727;52.134;5.052;2023-01-04T08:04:22;11.20;99.90
23116;DHT22;11727;52.134;5.052;2023-01-04T08:06:48;11.20;99.90
23116;DHT22;11727;52.134;5.052;2023-01-04T08:09:14;11.20;99.90
23116;DHT22;11727;52.134;5.052;2023-01-04T08:11:39;11.20;99.90
23116;DHT22;11727;52.134;5.052;2023-01-04T08:14:05;11.20;99.90
23116;DHT22;11727;52.134;5.052;2023-01-04T08:16:34;11.20;99.90
23116;DHT22;11727;52.134;5.052;2023-01-04T08:19:06;11.20;99.90
23116;DHT22;11727;52.134;5.052;2023-01-04T08:21:34;11.20;99.90
23116;DHT22;11727;52.134;5.052;2023-01-04T08:24:00;11.20;99.90
23116;DHT22;11727;52.134;5.052;2023-01-04T08:26:26;11.20;99.90
23116;DHT22;11727;52.134;5.052;2023-01-04T08:28:52;11.30;99.90
23116;DHT22;11727;52.134;5.052;2023-01-04T08:31:20;11.20;99.90
23116;DHT22;11727;52.134;5.052;2023-01-04T08:33:47;11.30;99.90
23116;DHT22;11727;52.134;5.052;2023-01-04T08:36:19;11.30;99.90
23116;DHT22;11727;52.134;5.052;2023-01-04T08:38:46;11.30;99.90
23116;DHT22;11727;52.134;5.052;2023-01-04T08:41:12;11.30;99.90
23116;DHT22;11727;52.134;5.052;2023-01-04T08:43:38;11.30;99.90
23116;DHT22;11727;52.134;5.052;2023-01-04T08:46:04;11.30;99.90
23116;DHT22;11727;52.134;5.052;2023-01-04T08:48:31;11.30;99.90
23116;DHT22;11727;52.134;5.052;2023-01-04T08:51:08;11.40;99.90
23116;DHT22;11727;52.134;5.052;2023-01-04T08:53:35;11.40;99.90
23116;DHT22;11727;52.134;5.052;2023-01-04T08:56:00;11.40;99.90
23116;DHT22;11727;52.134;5.052;2023-01-04T08:58:28;11.40;99.90
23116;DHT22;11727;52.134;5.052;2023-01-04T09:00:59;11.40;99.90
23116;DHT22;11727;52.134;5.052;2023-01-04T09:03:25;11.40;99.90
23116;DHT22;11727;52.134;5.052;2023-01-04T09:05:50;11.50;99.90
23116;DHT22;11727;52.134;5.052;2023-01-04T09:08:16;11.50;99.90
23116;DHT22;11727;52.134;5.052;2023-01-04T09:10:41;11.50;99.90
23116;DHT22;11727;52.134;5.052;2023-01-04T09:13:07;11.50;99.90
23116;DHT22;11727;52.134;5.052;2023-01-04T09:15:33;11.50;99.90
23116;DHT22;11727;52.134;5.052;2023-01-04T09:17:59;11.50;99.90
23116;DHT22;11727;52.134;5.052;2023-01-04T09:20:24;11.60;99.90
23116;DHT22;11727;52.134;5.052;2023-01-04T09:22:50;11.60;99.90
23116;DHT22;11727;52.134;5.052;2023-01-04T09:25:16;11.70;99.90
23116;DHT22;11727;52.134;5.052;2023-01-04T09:27:42;11.70;99.90
23116;DHT22;11727;52.134;5.052;2023-01-04T09:30:08;11.70;99.90
23116;DHT22;11727;52.134;5.052;2023-01-04T09:32:34;11.70;99.90
23116;DHT22;11727;52.134;5.052;2023-01-04T09:35:00;11.80;99.90
23116;DHT22;11727;52.134;5.052;2023-01-04T09:37:25;11.70;99.90
23116;DHT22;11727;52.134;5.052;2023-01-04T09:39:51;11.80;99.90
23116;DHT22;11727;52.134;5.052;2023-01-04T09:42:24;11.90;99.90
23116;DHT22;11727;52.134;5.052;2023-01-04T09:44:54;11.90;99.90
23116;DHT22;11727;52.134;5.052;2023-01-04T09:47:38;11.80;99.90
23116;DHT22;11727;52.134;5.052;2023-01-04T09:50:12;11.90;99.90
23116;DHT22;11727;52.134;5.052;2023-01-04T09:57:51;11.90;99.90
23116;DHT22;11727;52.134;5.052;2023-01-04T10:00:28;11.90;99.90
23116;DHT22;11727;52.134;5.052;2023-01-04T10:05:37;12.00;99.90
23116;DHT22;11727;52.134;5.052;2023-01-04T10:08:02;12.00;99.90
23116;DHT22;11727;52.134;5.052;2023-01-04T10:10:58;12.00;99.90
23116;DHT22;11727;52.134;5.052;2023-01-04T10:21:55;12.00;99.90
23116;DHT22;11727;52.134;5.052;2023-01-04T10:27:13;12.00;99.90
23116;DHT22;11727;52.134;5.052;2023-01-04T10:29:44;12.00;99.90
23116;DHT22;11727;52.134;5.052;2023-01-04T10:34:58;12.00;99.90
23116;DHT22;11727;52.134;5.052;2023-01-04T10:37:31;12.00;99.90
23116;DHT22;11727;52.134;5.052;2023-01-04T10:39:57;12.00;99.90
23116;DHT22;11727;52.134;5.052;2023-01-04T10:42:43;12.00;99.90
23116;DHT22;11727;52.134;5.052;2023-01-04T10:45:24;12.00;99.90
23116;DHT22;11727;52.134;5.052;2023-01-04T10:48:21;12.10;99.90
23116;DHT22;11727;52.134;5.052;2023-01-04T10:51:01;12.10;99.90
23116;DHT22;11727;52.134;5.052;2023-01-04T10:53:40;12.10;99.90
23116;DHT22;11727;52.134;5.052;2023-01-04T10:56:33;12.10;99.90
23116;DHT22;11727;52.134;5.052;2023-01-04T10:59:19;12.10;99.90
23116;DHT22;11727;52.134;5.052;2023-01-04T11:04:59;12.10;99.90
23116;DHT22;11727;52.134;5.052;2023-01-04T11:10:11;12.10;99.90
23116;DHT22;11727;52.134;5.052;2023-01-04T11:12:37;12.10;99.90
23116;DHT22;11727;52.134;5.052;2023-01-04T11:15:03;12.10;99.90
23116;DHT22;11727;52.134;5.052;2023-01-04T11:17:30;12.10;99.90
23116;DHT22;11727;52.134;5.052;2023-01-04T11:19:57;12.20;99.90
23116;DHT22;11727;52.134;5.052;2023-01-04T11:25:16;12.20;99.90
23116;DHT22;11727;52.134;5.052;2023-01-04T11:27:49;12.20;99.90
23116;DHT22;11727;52.134;5.052;2023-01-04T11:30:22;12.20;99.90
23116;DHT22;11727;52.134;5.052;2023-01-04T11:35:39;12.30;99.90
23116;DHT22;11727;52.134;5.052;2023-01-04T11:40:35;12.40;99.90
23116;DHT22;11727;52.134;5.052;2023-01-04T11:43:17;12.40;99.90
23116;DHT22;11727;52.134;5.052;2023-01-04T11:45:55;12.50;99.90
23116;DHT22;11727;52.134;5.052;2023-01-04T11:48:41;12.50;99.90
23116;DHT22;11727;52.134;5.052;2023-01-04T11:54:17;12.50;99.90
23116;DHT22;11727;52.134;5.052;2023-01-04T11:57:01;12.60;99.90
23116;DHT22;11727;52.134;5.052;2023-01-04T11:59:28;12.50;99.90
23116;DHT22;11727;52.134;5.052;2023-01-04T12:02:18;12.60;99.90
23116;DHT22;11727;52.134;5.052;2023-01-04T12:04:44;12.60;99.90
23116;DHT22;11727;52.134;5.052;2023-01-04T12:07:32;12.60;99.90
23116;DHT22;11727;52.134;5.052;2023-01-04T12:09:59;12.60;99.90
23116;DHT22;11727;52.134;5.052;2023-01-04T12:12:28;12.60;99.90
23116;DHT22;11727;52.134;5.052;2023-01-04T12:14:54;12.60;99.90
23116;DHT22;11727;52.134;5.052;2023-01-04T12:17:29;12.60;99.90
23116;DHT22;11727;52.134;5.052;2023-01-04T12:20:14;12.70;99.90
23116;DHT22;11727;52.134;5.052;2023-01-04T12:22:40;12.70;99.90
23116;DHT22;11727;52.134;5.052;2023-01-04T12:27:50;12.70;99.90
23116;DHT22;11727;52.134;5.052;2023-01-04T12:30:35;12.70;99.90
23116;DHT22;11727;52.134;5.052;2023-01-04T12:33:35;12.70;99.90
23116;DHT22;11727;52.134;5.052;2023-01-04T12:41:20;12.70;99.90
23116;DHT22;11727;52.134;5.052;2023-01-04T12:43:46;12.70;99.90
23116;DHT22;11727;52.134;5.052;2023-01-04T13:00:14;12.70;99.90
23116;DHT22;11727;52.134;5.052;2023-01-04T13:02:43;12.70;99.90
23116;DHT22;11727;52.134;5.052;2023-01-04T13:07:49;12.70;99.90
23116;DHT22;11727;52.134;5.052;2023-01-04T13:10:36;12.70;99.90
23116;DHT22;11727;52.134;5.052;2023-01-04T13:21:06;12.70;99.90
23116;DHT22;11727;52.134;5.052;2023-01-04T13:23:34;12.70;99.90
23116;DHT22;11727;52.134;5.052;2023-01-04T13:34:31;12.60;99.90
23116;DHT22;11727;52.134;5.052;2023-01-04T13:42:33;12.60;99.90
23116;DHT22;11727;52.134;5.052;2023-01-04T13:47:54;12.60;99.90
23116;DHT22;11727;52.134;5.052;2023-01-04T13:50:38;12.60;99.90
23116;DHT22;11727;52.134;5.052;2023-01-04T13:53:17;12.60;99.90
23116;DHT22;11727;52.134;5.052;2023-01-04T13:55:49;12.60;99.90
23116;DHT22;11727;52.134;5.052;2023-01-04T13:58:17;12.60;99.90
23116;DHT22;11727;52.134;5.052;2023-01-04T14:00:50;12.60;99.90
23116;DHT22;11727;52.134;5.052;2023-01-04T14:06:19;12.50;99.90
23116;DHT22;11727;52.134;5.052;2023-01-04T14:14:25;12.50;99.90
23116;DHT22;11727;52.134;5.052;2023-01-04T14:17:07;12.50;99.90
23116;DHT22;11727;52.134;5.052;2023-01-04T14:19:47;12.40;99.90
23116;DHT22;11727;52.134;5.052;2023-01-04T14:25:42;12.40;99.90
23116;DHT22;11727;52.134;5.052;2023-01-04T14:30:45;12.50;99.90
23116;DHT22;11727;52.134;5.052;2023-01-04T14:35:37;12.50;99.90
23116;DHT22;11727;52.134;5.052;2023-01-04T14:38:12;12.50;99.90
23116;DHT22;11727;52.134;5.052;2023-01-04T14:40:40;12.50;99.90
23116;DHT22;11727;52.134;5.052;2023-01-04T14:43:35;12.60;99.90
23116;DHT22;11727;52.134;5.052;2023-01-04T14:46:01;12.60;99.90
23116;DHT22;11727;52.134;5.052;2023-01-04T14:48:28;12.60;99.90
23116;DHT22;11727;52.134;5.052;2023-01-04T14:50:54;12.60;99.90
23116;DHT22;11727;52.134;5.052;2023-01-04T14:53:20;12.60;99.90
23116;DHT22;11727;52.134;5.052;2023-01-04T14:55:46;12.60;99.90
23116;DHT22;11727;52.134;5.052;2023-01-04T14:58:12;12.60;99.90
23116;DHT22;11727;52.134;5.052;2023-01-04T15:00:38;12.60;99.90
23116;DHT22;11727;52.134;5.052;2023-01-04T15:03:03;12.60;99.90
23116;DHT22;11727;52.134;5.052;2023-01-04T15:05:30;12.60;99.90
23116;DHT22;11727;52.134;5.052;2023-01-04T15:07:56;12.50;99.90
23116;DHT22;11727;52.134;5.052;2023-01-04T15:10:25;12.60;99.90
23116;DHT22;11727;52.134;5.052;2023-01-04T15:12:52;12.60;99.90
23116;DHT22;11727;52.134;5.052;2023-01-04T15:15:18;12.60;99.90
23116;DHT22;11727;52.134;5.052;2023-01-04T15:17:44;12.60;99.90
23116;DHT22;11727;52.134;5.052;2023-01-04T15:20:10;12.60;99.90
23116;DHT22;11727;52.134;5.052;2023-01-04T15:22:38;12.60;99.90
23116;DHT22;11727;52.134;5.052;2023-01-04T15:25:04;12.60;99.90
23116;DHT22;11727;52.134;5.052;2023-01-04T15:27:30;12.50;99.90
23116;DHT22;11727;52.134;5.052;2023-01-04T15:29:56;12.50;99.90
23116;DHT22;11727;52.134;5.052;2023-01-04T15:32:22;12.60;99.90
23116;DHT22;11727;52.134;5.052;2023-01-04T15:34:48;12.50;99.90
23116;DHT22;11727;52.134;5.052;2023-01-04T15:37:14;12.50;99.90
23116;DHT22;11727;52.134;5.052;2023-01-04T15:39:39;12.50;99.90
23116;DHT22;11727;52.134;5.052;2023-01-04T15:42:05;12.50;99.90
23116;DHT22;11727;52.134;5.052;2023-01-04T15:44:49;12.50;99.90
23116;DHT22;11727;52.134;5.052;2023-01-04T15:47:14;12.50;99.90
23116;DHT22;11727;52.134;5.052;2023-01-04T15:49:46;12.50;99.90
23116;DHT22;11727;52.134;5.052;2023-01-04T15:52:12;12.50;99.90
23116;DHT22;11727;52.134;5.052;2023-01-04T15:54:38;12.50;99.90
23116;DHT22;11727;52.134;5.052;2023-01-04T15:57:06;12.50;99.90
23116;DHT22;11727;52.134;5.052;2023-01-04T15:59:32;12.50;99.90
23116;DHT22;11727;52.134;5.052;2023-01-04T16:01:57;12.50;99.90
23116;DHT22;11727;52.134;5.052;2023-01-04T16:04:23;12.40;99.90
23116;DHT22;11727;52.134;5.052;2023-01-04T16:06:49;12.50;99.90
23116;DHT22;11727;52.134;5.052;2023-01-04T16:09:15;12.50;99.90
23116;DHT22;11727;52.134;5.052;2023-01-04T16:11:40;12.50;99.90
23116;DHT22;11727;52.134;5.052;2023-01-04T16:14:26;12.50;99.90
23116;DHT22;11727;52.134;5.052;2023-01-04T16:16:52;12.40;99.90
23116;DHT22;11727;52.134;5.052;2023-01-04T16:19:17;12.40;99.90
23116;DHT22;11727;52.134;5.052;2023-01-04T16:21:43;12.40;99.90
23116;DHT22;11727;52.134;5.052;2023-01-04T16:24:09;12.40;99.90
23116;DHT22;11727;52.134;5.052;2023-01-04T16:26:35;12.40;99.90
23116;DHT22;11727;52.134;5.052;2023-01-04T16:29:01;12.40;99.90
23116;DHT22;11727;52.134;5.052;2023-01-04T16:31:32;12.30;99.90
23116;DHT22;11727;52.134;5.052;2023-01-04T16:34:00;12.40;99.90
23116;DHT22;11727;52.134;5.052;2023-01-04T16:36:26;12.40;99.90
23116;DHT22;11727;52.134;5.052;2023-01-04T16:38:52;12.40;99.90
23116;DHT22;11727;52.134;5.052;2023-01-04T16:41:19;12.40;99.90
23116;DHT22;11727;52.134;5.052;2023-01-04T16:43:46;12.40;99.90
23116;DHT22;11727;52.134;5.052;2023-01-04T16:49:02;12.40;99.90
23116;DHT22;11727;52.134;5.052;2023-01-04T16:51:32;12.40;99.90
23116;DHT22;11727;52.134;5.052;2023-01-04T16:53:58;12.30;99.90
23116;DHT22;11727;52.134;5.052;2023-01-04T16:56:25;12.30;99.90
23116;DHT22;11727;52.134;5.052;2023-01-04T16:58:52;12.30;99.90
23116;DHT22;11727;52.134;5.052;2023-01-04T17:01:20;12.30;99.90
23116;DHT22;11727;52.134;5.052;2023-01-04T17:03:47;12.30;99.90
23116;DHT22;11727;52.134;5.052;2023-01-04T17:06:14;12.20;99.90
23116;DHT22;11727;52.134;5.052;2023-01-04T17:08:40;12.20;99.90
23116;DHT22;11727;52.134;5.052;2023-01-04T17:11:08;12.20;99.90
23116;DHT22;11727;52.134;5.052;2023-01-04T17:13:34;12.20;99.90
23116;DHT22;11727;52.134;5.052;2023-01-04T17:16:00;12.20;99.90
23116;DHT22;11727;52.134;5.052;2023-01-04T17:18:27;12.20;99.90
23116;DHT22;11727;52.134;5.052;2023-01-04T17:20:54;12.20;99.90
23116;DHT22;11727;52.134;5.052;2023-01-04T17:23:20;12.20;99.90
23116;DHT22;11727;52.134;5.052;2023-01-04T17:25:46;12.30;99.90
23116;DHT22;11727;52.134;5.052;2023-01-04T17:28:12;12.20;99.90
23116;DHT22;11727;52.134;5.052;2023-01-04T17:30:38;12.20;99.90
23116;DHT22;11727;52.134;5.052;2023-01-04T17:33:04;12.30;99.90
23116;DHT22;11727;52.134;5.052;2023-01-04T17:35:29;12.20;99.90
23116;DHT22;11727;52.134;5.052;2023-01-04T17:37:55;12.20;99.90
23116;DHT22;11727;52.134;5.052;2023-01-04T17:40:21;12.20;99.90
23116;DHT22;11727;52.134;5.052;2023-01-04T17:42:47;12.20;99.90
23116;DHT22;11727;52.134;5.052;2023-01-04T17:45:12;12.10;99.90
23116;DHT22;11727;52.134;5.052;2023-01-04T17:47:38;12.20;99.90
23116;DHT22;11727;52.134;5.052;2023-01-04T17:50:04;12.10;99.90
23116;DHT22;11727;52.134;5.052;2023-01-04T17:52:29;12.10;99.90
23116;DHT22;11727;52.134;5.052;2023-01-04T17:54:55;12.10;99.90
23116;DHT22;11727;52.134;5.052;2023-01-04T17:57:20;12.10;99.90
23116;DHT22;11727;52.134;5.052;2023-01-04T17:59:46;12.10;99.90
23116;DHT22;11727;52.134;5.052;2023-01-04T18:02:11;12.10;99.90
23116;DHT22;11727;52.134;5.052;2023-01-04T18:04:37;12.10;99.90